メインページ
METAR-TAF:

METAR-TAF

空港 :

シモン・ボリバル国際空港

カラカス, ベネズエラ

緯度: 10-36N, 経度: 066-59W, 海抜: 43m

現時点の気象観測

当レポートは57分前の06:00(UTC)に作成
無風
気温 24°C
湿度 89%
気圧 1012 hPa
視程10km以上
高度1600ftの雲はほとんどない

METAR: SVMI 200600Z 00000KT 9999 FEW016 24/22 Q1012

時間: 02:57 (06:57 UTC)

予報

当レポートは8時間57分前の22:00(UTC)に作成
予報は20日の 00時(UTC)から 21日の 00時(UTC)まで有効
東/北東の風 3kt
視程: 9000m
高度1600ftの雲はほとんどない
高度7000ftの雲は散在している
高度1600ftの雲は散在している
霧雨

TAF: SVMI 192200Z 2000/2100 09004KT 9999 FEW016 SCT070 TX32/17Z TN24/10ZBECMG 2001/2005 07003KT 9000 DZ SCT016

4,000以上の空港の気象観測と天気予報(METAR報とTAF報)

利用可能な観測所は地図上に黄色い丸と赤い丸で示す。

丸の上にカーソルを重ねると観測所名を参照できる。

次にクリックすると気象観測と天気予報を参照できる。

マップの切り替え:黒色「×」印の緑ボタンをクリックして拡大、「-」印の緑ボタンをクリックして縮小、緑色の三角印をクリックして隣りの地図に切り替え


METAR-TAF: